sensor_id;sensor_type;location;lat;lon;timestamp;P1;durP1;ratioP1;P2;durP2;ratioP2
14704;SDS011;7442;50.840;3.396;2023-02-10T00:01:22;7.62;;;5.60;;
14704;SDS011;7442;50.840;3.396;2023-02-10T00:03:51;7.90;;;5.50;;
14704;SDS011;7442;50.840;3.396;2023-02-10T00:06:20;8.10;;;5.80;;
14704;SDS011;7442;50.840;3.396;2023-02-10T00:08:51;7.65;;;5.40;;
14704;SDS011;7442;50.840;3.396;2023-02-10T00:11:21;6.40;;;5.35;;
14704;SDS011;7442;50.840;3.396;2023-02-10T00:13:52;7.10;;;5.62;;
14704;SDS011;7442;50.840;3.396;2023-02-10T00:16:20;6.97;;;5.60;;
14704;SDS011;7442;50.840;3.396;2023-02-10T00:18:48;6.70;;;5.55;;
14704;SDS011;7442;50.840;3.396;2023-02-10T00:21:16;5.92;;;4.97;;
14704;SDS011;7442;50.840;3.396;2023-02-10T00:23:43;6.47;;;5.30;;
14704;SDS011;7442;50.840;3.396;2023-02-10T00:26:11;6.85;;;5.40;;
14704;SDS011;7442;50.840;3.396;2023-02-10T00:28:40;7.28;;;5.75;;
14704;SDS011;7442;50.840;3.396;2023-02-10T00:31:09;6.95;;;5.65;;
14704;SDS011;7442;50.840;3.396;2023-02-10T00:33:39;6.20;;;5.15;;
14704;SDS011;7442;50.840;3.396;2023-02-10T00:36:08;6.12;;;5.40;;
14704;SDS011;7442;50.840;3.396;2023-02-10T00:38:38;6.35;;;5.40;;
14704;SDS011;7442;50.840;3.396;2023-02-10T00:41:08;6.53;;;5.80;;
14704;SDS011;7442;50.840;3.396;2023-02-10T00:43:40;6.60;;;5.42;;
14704;SDS011;7442;50.840;3.396;2023-02-10T00:46:16;7.25;;;5.45;;
14704;SDS011;7442;50.840;3.396;2023-02-10T00:48:39;7.55;;;5.55;;
14704;SDS011;7442;50.840;3.396;2023-02-10T00:51:07;6.65;;;5.47;;
14704;SDS011;7442;50.840;3.396;2023-02-10T00:53:35;6.55;;;5.55;;
14704;SDS011;7442;50.840;3.396;2023-02-10T00:56:02;6.08;;;5.45;;
14704;SDS011;7442;50.840;3.396;2023-02-10T00:58:31;7.87;;;6.22;;
14704;SDS011;7442;50.840;3.396;2023-02-10T01:00:58;5.85;;;5.22;;
14704;SDS011;7442;50.840;3.396;2023-02-10T01:03:26;6.47;;;5.53;;
14704;SDS011;7442;50.840;3.396;2023-02-10T01:05:54;6.20;;;5.37;;
14704;SDS011;7442;50.840;3.396;2023-02-10T01:08:21;7.37;;;5.58;;
14704;SDS011;7442;50.840;3.396;2023-02-10T01:10:49;6.65;;;5.67;;
14704;SDS011;7442;50.840;3.396;2023-02-10T01:13:18;6.97;;;5.58;;
14704;SDS011;7442;50.840;3.396;2023-02-10T01:15:46;6.40;;;5.65;;
14704;SDS011;7442;50.840;3.396;2023-02-10T01:18:14;6.78;;;5.60;;
14704;SDS011;7442;50.840;3.396;2023-02-10T01:20:42;7.78;;;5.65;;
14704;SDS011;7442;50.840;3.396;2023-02-10T01:23:10;6.83;;;6.03;;
14704;SDS011;7442;50.840;3.396;2023-02-10T01:25:38;7.53;;;5.85;;
14704;SDS011;7442;50.840;3.396;2023-02-10T01:28:06;7.25;;;5.65;;
14704;SDS011;7442;50.840;3.396;2023-02-10T01:30:35;6.78;;;5.37;;
14704;SDS011;7442;50.840;3.396;2023-02-10T01:33:02;6.08;;;5.40;;
14704;SDS011;7442;50.840;3.396;2023-02-10T01:35:33;6.58;;;5.72;;
14704;SDS011;7442;50.840;3.396;2023-02-10T01:38:02;5.95;;;5.35;;
14704;SDS011;7442;50.840;3.396;2023-02-10T01:40:29;7.33;;;5.78;;
14704;SDS011;7442;50.840;3.396;2023-02-10T01:42:57;5.35;;;4.85;;
14704;SDS011;7442;50.840;3.396;2023-02-10T01:45:36;6.70;;;5.83;;
14704;SDS011;7442;50.840;3.396;2023-02-10T01:48:01;6.15;;;5.50;;
14704;SDS011;7442;50.840;3.396;2023-02-10T01:50:31;7.50;;;5.65;;
14704;SDS011;7442;50.840;3.396;2023-02-10T01:53:03;6.62;;;5.50;;
14704;SDS011;7442;50.840;3.396;2023-02-10T01:55:33;6.42;;;5.80;;
14704;SDS011;7442;50.840;3.396;2023-02-10T01:58:03;6.87;;;5.72;;
14704;SDS011;7442;50.840;3.396;2023-02-10T02:00:33;5.92;;;5.25;;
14704;SDS011;7442;50.840;3.396;2023-02-10T02:03:01;6.40;;;5.67;;
14704;SDS011;7442;50.840;3.396;2023-02-10T02:05:34;6.85;;;5.67;;
14704;SDS011;7442;50.840;3.396;2023-02-10T02:08:27;7.53;;;5.87;;
14704;SDS011;7442;50.840;3.396;2023-02-10T02:33:22;6.70;;;6.00;;
14704;SDS011;7442;50.840;3.396;2023-02-10T02:36:02;7.03;;;5.97;;
14704;SDS011;7442;50.840;3.396;2023-02-10T02:38:39;6.55;;;5.62;;
14704;SDS011;7442;50.840;3.396;2023-02-10T02:41:08;6.78;;;5.87;;
14704;SDS011;7442;50.840;3.396;2023-02-10T02:43:37;6.08;;;5.42;;
14704;SDS011;7442;50.840;3.396;2023-02-10T02:54:16;6.62;;;5.80;;
14704;SDS011;7442;50.840;3.396;2023-02-10T02:56:54;7.10;;;6.00;;
14704;SDS011;7442;50.840;3.396;2023-02-10T02:59:38;7.15;;;5.75;;
14704;SDS011;7442;50.840;3.396;2023-02-10T03:02:07;7.12;;;5.85;;
14704;SDS011;7442;50.840;3.396;2023-02-10T03:04:37;7.55;;;6.37;;
14704;SDS011;7442;50.840;3.396;2023-02-10T03:07:06;6.03;;;5.42;;
14704;SDS011;7442;50.840;3.396;2023-02-10T03:09:34;6.58;;;5.72;;
14704;SDS011;7442;50.840;3.396;2023-02-10T03:12:02;6.60;;;5.90;;
14704;SDS011;7442;50.840;3.396;2023-02-10T03:14:30;6.87;;;6.03;;
14704;SDS011;7442;50.840;3.396;2023-02-10T03:16:58;7.22;;;5.80;;
14704;SDS011;7442;50.840;3.396;2023-02-10T03:19:26;6.55;;;5.75;;
14704;SDS011;7442;50.840;3.396;2023-02-10T03:21:53;7.25;;;6.12;;
14704;SDS011;7442;50.840;3.396;2023-02-10T03:24:21;8.18;;;5.87;;
14704;SDS011;7442;50.840;3.396;2023-02-10T03:26:49;6.37;;;5.75;;
14704;SDS011;7442;50.840;3.396;2023-02-10T03:29:17;7.28;;;5.92;;
14704;SDS011;7442;50.840;3.396;2023-02-10T03:31:45;10.35;;;5.62;;
14704;SDS011;7442;50.840;3.396;2023-02-10T03:34:13;6.45;;;5.70;;
14704;SDS011;7442;50.840;3.396;2023-02-10T03:36:40;6.37;;;5.58;;
14704;SDS011;7442;50.840;3.396;2023-02-10T03:39:08;7.87;;;6.00;;
14704;SDS011;7442;50.840;3.396;2023-02-10T03:41:36;6.70;;;6.05;;
14704;SDS011;7442;50.840;3.396;2023-02-10T03:44:03;7.97;;;6.20;;
14704;SDS011;7442;50.840;3.396;2023-02-10T03:46:32;6.72;;;5.85;;
14704;SDS011;7442;50.840;3.396;2023-02-10T03:49:01;7.55;;;5.92;;
14704;SDS011;7442;50.840;3.396;2023-02-10T03:51:29;7.58;;;6.45;;
14704;SDS011;7442;50.840;3.396;2023-02-10T03:53:57;6.33;;;5.70;;
14704;SDS011;7442;50.840;3.396;2023-02-10T03:56:25;6.58;;;5.95;;
14704;SDS011;7442;50.840;3.396;2023-02-10T03:58:53;7.42;;;6.33;;
14704;SDS011;7442;50.840;3.396;2023-02-10T04:01:20;6.45;;;5.85;;
14704;SDS011;7442;50.840;3.396;2023-02-10T04:03:48;6.90;;;6.20;;
14704;SDS011;7442;50.840;3.396;2023-02-10T04:06:16;7.60;;;6.35;;
14704;SDS011;7442;50.840;3.396;2023-02-10T04:08:46;6.70;;;5.78;;
14704;SDS011;7442;50.840;3.396;2023-02-10T04:11:14;6.92;;;6.10;;
14704;SDS011;7442;50.840;3.396;2023-02-10T04:13:42;7.30;;;6.35;;
14704;SDS011;7442;50.840;3.396;2023-02-10T04:16:14;8.18;;;6.47;;
14704;SDS011;7442;50.840;3.396;2023-02-10T04:18:45;7.12;;;6.20;;
14704;SDS011;7442;50.840;3.396;2023-02-10T04:21:12;6.65;;;5.90;;
14704;SDS011;7442;50.840;3.396;2023-02-10T04:23:41;6.92;;;6.00;;
14704;SDS011;7442;50.840;3.396;2023-02-10T04:26:08;6.45;;;5.60;;
14704;SDS011;7442;50.840;3.396;2023-02-10T04:28:36;6.65;;;5.90;;
14704;SDS011;7442;50.840;3.396;2023-02-10T04:31:04;6.90;;;6.20;;
14704;SDS011;7442;50.840;3.396;2023-02-10T04:33:31;7.35;;;6.17;;
14704;SDS011;7442;50.840;3.396;2023-02-10T04:36:00;6.78;;;6.00;;
14704;SDS011;7442;50.840;3.396;2023-02-10T04:38:30;7.53;;;5.95;;
14704;SDS011;7442;50.840;3.396;2023-02-10T04:40:58;7.17;;;6.28;;
14704;SDS011;7442;50.840;3.396;2023-02-10T04:43:28;7.35;;;6.22;;
14704;SDS011;7442;50.840;3.396;2023-02-10T04:45:55;6.75;;;6.05;;
14704;SDS011;7442;50.840;3.396;2023-02-10T04:48:23;8.43;;;6.03;;
14704;SDS011;7442;50.840;3.396;2023-02-10T04:50:51;6.75;;;6.00;;
14704;SDS011;7442;50.840;3.396;2023-02-10T04:53:19;7.03;;;5.90;;
14704;SDS011;7442;50.840;3.396;2023-02-10T04:55:47;8.10;;;6.37;;
14704;SDS011;7442;50.840;3.396;2023-02-10T04:58:15;7.10;;;6.25;;
14704;SDS011;7442;50.840;3.396;2023-02-10T05:00:43;6.87;;;6.12;;
14704;SDS011;7442;50.840;3.396;2023-02-10T05:03:10;7.17;;;6.45;;
14704;SDS011;7442;50.840;3.396;2023-02-10T05:05:38;7.67;;;6.47;;
14704;SDS011;7442;50.840;3.396;2023-02-10T05:08:06;7.05;;;6.20;;
14704;SDS011;7442;50.840;3.396;2023-02-10T05:10:34;7.35;;;6.00;;
14704;SDS011;7442;50.840;3.396;2023-02-10T05:13:01;7.12;;;5.90;;
14704;SDS011;7442;50.840;3.396;2023-02-10T05:15:29;6.60;;;5.90;;
14704;SDS011;7442;50.840;3.396;2023-02-10T05:17:57;7.12;;;6.00;;
14704;SDS011;7442;50.840;3.396;2023-02-10T05:20:24;7.03;;;6.20;;
14704;SDS011;7442;50.840;3.396;2023-02-10T05:22:58;6.70;;;5.83;;
14704;SDS011;7442;50.840;3.396;2023-02-10T05:25:26;6.62;;;5.80;;
14704;SDS011;7442;50.840;3.396;2023-02-10T05:27:53;6.80;;;6.08;;
14704;SDS011;7442;50.840;3.396;2023-02-10T05:30:21;7.80;;;6.00;;
14704;SDS011;7442;50.840;3.396;2023-02-10T05:32:49;6.50;;;5.80;;
14704;SDS011;7442;50.840;3.396;2023-02-10T05:35:16;6.95;;;5.95;;
14704;SDS011;7442;50.840;3.396;2023-02-10T05:37:45;7.65;;;6.05;;
14704;SDS011;7442;50.840;3.396;2023-02-10T05:40:15;7.67;;;6.85;;
14704;SDS011;7442;50.840;3.396;2023-02-10T05:42:43;7.08;;;5.80;;
14704;SDS011;7442;50.840;3.396;2023-02-10T05:45:10;8.48;;;6.05;;
14704;SDS011;7442;50.840;3.396;2023-02-10T05:47:38;7.12;;;6.05;;
14704;SDS011;7442;50.840;3.396;2023-02-10T05:50:09;6.97;;;6.20;;
14704;SDS011;7442;50.840;3.396;2023-02-10T05:52:37;6.58;;;5.78;;
14704;SDS011;7442;50.840;3.396;2023-02-10T05:55:05;7.50;;;6.03;;
14704;SDS011;7442;50.840;3.396;2023-02-10T05:57:33;6.72;;;6.03;;
14704;SDS011;7442;50.840;3.396;2023-02-10T06:00:02;7.17;;;6.12;;
14704;SDS011;7442;50.840;3.396;2023-02-10T06:02:31;7.10;;;5.67;;
14704;SDS011;7442;50.840;3.396;2023-02-10T06:04:59;6.62;;;5.90;;
14704;SDS011;7442;50.840;3.396;2023-02-10T06:07:27;6.50;;;5.85;;
14704;SDS011;7442;50.840;3.396;2023-02-10T06:09:55;6.72;;;6.03;;
14704;SDS011;7442;50.840;3.396;2023-02-10T06:12:23;6.42;;;5.83;;
14704;SDS011;7442;50.840;3.396;2023-02-10T06:14:50;6.37;;;5.70;;
14704;SDS011;7442;50.840;3.396;2023-02-10T06:17:18;6.45;;;5.80;;
14704;SDS011;7442;50.840;3.396;2023-02-10T06:19:46;6.72;;;5.97;;
14704;SDS011;7442;50.840;3.396;2023-02-10T06:22:13;7.12;;;6.28;;
14704;SDS011;7442;50.840;3.396;2023-02-10T06:24:41;7.10;;;6.03;;
14704;SDS011;7442;50.840;3.396;2023-02-10T06:27:09;6.67;;;5.95;;
14704;SDS011;7442;50.840;3.396;2023-02-10T06:29:37;6.75;;;6.05;;
14704;SDS011;7442;50.840;3.396;2023-02-10T06:32:04;8.65;;;6.00;;
14704;SDS011;7442;50.840;3.396;2023-02-10T06:34:32;9.30;;;6.70;;
14704;SDS011;7442;50.840;3.396;2023-02-10T06:37:00;8.50;;;6.58;;
14704;SDS011;7442;50.840;3.396;2023-02-10T06:39:27;9.03;;;7.03;;
14704;SDS011;7442;50.840;3.396;2023-02-10T06:41:55;7.92;;;6.60;;
14704;SDS011;7442;50.840;3.396;2023-02-10T06:44:24;10.35;;;6.58;;
14704;SDS011;7442;50.840;3.396;2023-02-10T06:46:52;11.57;;;7.53;;
14704;SDS011;7442;50.840;3.396;2023-02-10T06:49:20;10.70;;;6.80;;
14704;SDS011;7442;50.840;3.396;2023-02-10T06:51:47;12.68;;;7.20;;
14704;SDS011;7442;50.840;3.396;2023-02-10T06:54:15;16.02;;;7.10;;
14704;SDS011;7442;50.840;3.396;2023-02-10T06:56:43;12.10;;;7.20;;
14704;SDS011;7442;50.840;3.396;2023-02-10T06:59:11;12.88;;;7.05;;
14704;SDS011;7442;50.840;3.396;2023-02-10T07:01:40;13.55;;;6.87;;
14704;SDS011;7442;50.840;3.396;2023-02-10T07:04:08;11.33;;;7.45;;
14704;SDS011;7442;50.840;3.396;2023-02-10T07:06:35;10.63;;;7.85;;
14704;SDS011;7442;50.840;3.396;2023-02-10T07:09:03;15.05;;;7.90;;
14704;SDS011;7442;50.840;3.396;2023-02-10T07:11:32;15.00;;;8.33;;
14704;SDS011;7442;50.840;3.396;2023-02-10T07:14:00;11.55;;;7.45;;
14704;SDS011;7442;50.840;3.396;2023-02-10T07:16:28;12.58;;;7.60;;
14704;SDS011;7442;50.840;3.396;2023-02-10T07:18:56;15.00;;;9.05;;
14704;SDS011;7442;50.840;3.396;2023-02-10T07:21:24;14.93;;;8.53;;
14704;SDS011;7442;50.840;3.396;2023-02-10T07:23:52;16.73;;;8.08;;
14704;SDS011;7442;50.840;3.396;2023-02-10T07:26:19;16.20;;;8.50;;
14704;SDS011;7442;50.840;3.396;2023-02-10T07:28:47;14.18;;;8.13;;
14704;SDS011;7442;50.840;3.396;2023-02-10T07:31:15;18.60;;;8.60;;
14704;SDS011;7442;50.840;3.396;2023-02-10T07:33:42;16.80;;;9.28;;
14704;SDS011;7442;50.840;3.396;2023-02-10T07:36:14;16.48;;;7.97;;
14704;SDS011;7442;50.840;3.396;2023-02-10T07:38:42;17.98;;;8.20;;
14704;SDS011;7442;50.840;3.396;2023-02-10T07:41:10;14.20;;;8.85;;
14704;SDS011;7442;50.840;3.396;2023-02-10T07:43:38;15.55;;;9.03;;
14704;SDS011;7442;50.840;3.396;2023-02-10T07:46:05;15.78;;;8.98;;
14704;SDS011;7442;50.840;3.396;2023-02-10T07:48:33;20.08;;;9.53;;
14704;SDS011;7442;50.840;3.396;2023-02-10T07:51:01;17.30;;;9.23;;
14704;SDS011;7442;50.840;3.396;2023-02-10T07:53:28;20.60;;;9.83;;
14704;SDS011;7442;50.840;3.396;2023-02-10T07:55:59;16.73;;;9.30;;
14704;SDS011;7442;50.840;3.396;2023-02-10T07:58:27;16.52;;;8.78;;
14704;SDS011;7442;50.840;3.396;2023-02-10T08:00:55;19.82;;;9.63;;
14704;SDS011;7442;50.840;3.396;2023-02-10T08:03:23;21.55;;;10.03;;
14704;SDS011;7442;50.840;3.396;2023-02-10T08:05:51;19.52;;;10.05;;
14704;SDS011;7442;50.840;3.396;2023-02-10T08:08:18;20.15;;;9.48;;
14704;SDS011;7442;50.840;3.396;2023-02-10T08:10:46;20.23;;;10.18;;
14704;SDS011;7442;50.840;3.396;2023-02-10T08:13:14;19.40;;;10.03;;
14704;SDS011;7442;50.840;3.396;2023-02-10T08:15:41;21.25;;;9.90;;
14704;SDS011;7442;50.840;3.396;2023-02-10T08:18:09;21.87;;;10.23;;
14704;SDS011;7442;50.840;3.396;2023-02-10T08:20:37;30.00;;;10.20;;
14704;SDS011;7442;50.840;3.396;2023-02-10T08:23:07;24.72;;;10.15;;
14704;SDS011;7442;50.840;3.396;2023-02-10T08:25:37;29.95;;;10.00;;
14704;SDS011;7442;50.840;3.396;2023-02-10T08:28:05;31.62;;;10.32;;
14704;SDS011;7442;50.840;3.396;2023-02-10T08:30:33;23.75;;;10.70;;
14704;SDS011;7442;50.840;3.396;2023-02-10T08:33:01;20.02;;;9.35;;
14704;SDS011;7442;50.840;3.396;2023-02-10T08:35:29;27.42;;;10.25;;
14704;SDS011;7442;50.840;3.396;2023-02-10T08:37:56;23.85;;;9.60;;
14704;SDS011;7442;50.840;3.396;2023-02-10T08:40:24;26.75;;;10.32;;
14704;SDS011;7442;50.840;3.396;2023-02-10T08:42:52;28.75;;;10.45;;
14704;SDS011;7442;50.840;3.396;2023-02-10T08:45:20;29.07;;;11.05;;
14704;SDS011;7442;50.840;3.396;2023-02-10T08:47:48;24.02;;;10.23;;
14704;SDS011;7442;50.840;3.396;2023-02-10T08:50:15;30.48;;;9.98;;
14704;SDS011;7442;50.840;3.396;2023-02-10T08:52:43;25.43;;;9.53;;
14704;SDS011;7442;50.840;3.396;2023-02-10T08:55:11;32.53;;;11.22;;
14704;SDS011;7442;50.840;3.396;2023-02-10T08:57:39;25.88;;;10.40;;
14704;SDS011;7442;50.840;3.396;2023-02-10T09:00:07;33.53;;;11.35;;
14704;SDS011;7442;50.840;3.396;2023-02-10T09:02:35;40.52;;;10.95;;
14704;SDS011;7442;50.840;3.396;2023-02-10T09:05:03;29.12;;;10.43;;
14704;SDS011;7442;50.840;3.396;2023-02-10T09:07:31;28.45;;;10.72;;
14704;SDS011;7442;50.840;3.396;2023-02-10T09:09:59;30.62;;;11.20;;
14704;SDS011;7442;50.840;3.396;2023-02-10T09:12:27;36.65;;;10.88;;
14704;SDS011;7442;50.840;3.396;2023-02-10T09:14:55;38.33;;;10.43;;
14704;SDS011;7442;50.840;3.396;2023-02-10T09:17:22;31.25;;;10.48;;
14704;SDS011;7442;50.840;3.396;2023-02-10T09:19:50;30.35;;;10.45;;
14704;SDS011;7442;50.840;3.396;2023-02-10T09:22:18;36.17;;;11.08;;
14704;SDS011;7442;50.840;3.396;2023-02-10T09:24:45;32.28;;;10.98;;
14704;SDS011;7442;50.840;3.396;2023-02-10T09:27:17;38.60;;;11.18;;
14704;SDS011;7442;50.840;3.396;2023-02-10T09:29:47;28.57;;;10.30;;
14704;SDS011;7442;50.840;3.396;2023-02-10T09:32:15;34.13;;;11.05;;
14704;SDS011;7442;50.840;3.396;2023-02-10T09:34:42;46.48;;;12.25;;
14704;SDS011;7442;50.840;3.396;2023-02-10T09:37:11;35.80;;;10.95;;
14704;SDS011;7442;50.840;3.396;2023-02-10T09:39:39;37.95;;;11.00;;
14704;SDS011;7442;50.840;3.396;2023-02-10T09:42:08;33.58;;;12.05;;
14704;SDS011;7442;50.840;3.396;2023-02-10T09:44:38;27.37;;;11.88;;
14704;SDS011;7442;50.840;3.396;2023-02-10T09:47:26;32.93;;;11.12;;
14704;SDS011;7442;50.840;3.396;2023-02-10T09:57:56;36.13;;;11.20;;
14704;SDS011;7442;50.840;3.396;2023-02-10T10:03:05;28.62;;;11.05;;
14704;SDS011;7442;50.840;3.396;2023-02-10T10:05:39;34.05;;;11.97;;
14704;SDS011;7442;50.840;3.396;2023-02-10T10:11:17;32.65;;;11.08;;
14704;SDS011;7442;50.840;3.396;2023-02-10T10:13:56;29.80;;;11.00;;
14704;SDS011;7442;50.840;3.396;2023-02-10T10:31:32;40.05;;;11.65;;
14704;SDS011;7442;50.840;3.396;2023-02-10T10:36:19;35.68;;;10.60;;
14704;SDS011;7442;50.840;3.396;2023-02-10T10:38:52;32.60;;;10.65;;
14704;SDS011;7442;50.840;3.396;2023-02-10T10:41:23;30.97;;;11.00;;
14704;SDS011;7442;50.840;3.396;2023-02-10T10:43:53;33.58;;;11.15;;
14704;SDS011;7442;50.840;3.396;2023-02-10T10:48:56;29.30;;;10.43;;
14704;SDS011;7442;50.840;3.396;2023-02-10T10:51:24;30.75;;;10.65;;
14704;SDS011;7442;50.840;3.396;2023-02-10T10:53:53;29.05;;;10.20;;
14704;SDS011;7442;50.840;3.396;2023-02-10T11:01:45;25.35;;;10.78;;
14704;SDS011;7442;50.840;3.396;2023-02-10T11:04:15;20.48;;;9.45;;
14704;SDS011;7442;50.840;3.396;2023-02-10T11:06:46;33.63;;;11.12;;
14704;SDS011;7442;50.840;3.396;2023-02-10T11:09:24;39.08;;;12.50;;
14704;SDS011;7442;50.840;3.396;2023-02-10T11:11:49;28.02;;;10.43;;
14704;SDS011;7442;50.840;3.396;2023-02-10T11:14:23;28.10;;;11.15;;
14704;SDS011;7442;50.840;3.396;2023-02-10T11:16:54;24.95;;;9.95;;
14704;SDS011;7442;50.840;3.396;2023-02-10T11:19:25;26.45;;;11.12;;
14704;SDS011;7442;50.840;3.396;2023-02-10T11:21:54;32.38;;;10.98;;
14704;SDS011;7442;50.840;3.396;2023-02-10T11:24:23;29.45;;;10.15;;
14704;SDS011;7442;50.840;3.396;2023-02-10T11:27:06;25.48;;;10.63;;
14704;SDS011;7442;50.840;3.396;2023-02-10T11:29:31;26.10;;;10.08;;
14704;SDS011;7442;50.840;3.396;2023-02-10T11:32:00;27.07;;;11.10;;
14704;SDS011;7442;50.840;3.396;2023-02-10T11:34:29;29.05;;;10.60;;
14704;SDS011;7442;50.840;3.396;2023-02-10T11:37:08;27.90;;;9.93;;
14704;SDS011;7442;50.840;3.396;2023-02-10T11:39:34;30.43;;;10.23;;
14704;SDS011;7442;50.840;3.396;2023-02-10T11:42:10;19.82;;;10.23;;
14704;SDS011;7442;50.840;3.396;2023-02-10T11:44:40;27.50;;;10.80;;
14704;SDS011;7442;50.840;3.396;2023-02-10T11:47:14;31.27;;;10.85;;
14704;SDS011;7442;50.840;3.396;2023-02-10T11:49:46;27.25;;;10.10;;
14704;SDS011;7442;50.840;3.396;2023-02-10T11:52:17;25.72;;;10.18;;
14704;SDS011;7442;50.840;3.396;2023-02-10T11:54:48;29.67;;;10.15;;
14704;SDS011;7442;50.840;3.396;2023-02-10T12:00:22;22.37;;;10.85;;
14704;SDS011;7442;50.840;3.396;2023-02-10T12:03:04;27.05;;;10.10;;
14704;SDS011;7442;50.840;3.396;2023-02-10T12:06:03;24.90;;;10.28;;
14704;SDS011;7442;50.840;3.396;2023-02-10T12:11:39;25.65;;;10.03;;
14704;SDS011;7442;50.840;3.396;2023-02-10T12:19:23;26.55;;;9.68;;
14704;SDS011;7442;50.840;3.396;2023-02-10T12:25:02;27.32;;;10.45;;
14704;SDS011;7442;50.840;3.396;2023-02-10T12:27:51;25.27;;;10.80;;
14704;SDS011;7442;50.840;3.396;2023-02-10T12:33:23;25.60;;;10.28;;
14704;SDS011;7442;50.840;3.396;2023-02-10T12:44:16;24.45;;;10.25;;
14704;SDS011;7442;50.840;3.396;2023-02-10T12:49:30;25.95;;;9.45;;
14704;SDS011;7442;50.840;3.396;2023-02-10T12:54:55;25.90;;;9.85;;
14704;SDS011;7442;50.840;3.396;2023-02-10T12:57:39;25.37;;;11.05;;
14704;SDS011;7442;50.840;3.396;2023-02-10T13:03:01;24.18;;;9.48;;
14704;SDS011;7442;50.840;3.396;2023-02-10T13:05:37;24.30;;;9.20;;
14704;SDS011;7442;50.840;3.396;2023-02-10T13:08:09;24.57;;;10.08;;
14704;SDS011;7442;50.840;3.396;2023-02-10T13:10:43;25.97;;;10.25;;
14704;SDS011;7442;50.840;3.396;2023-02-10T13:15:48;23.83;;;9.65;;
14704;SDS011;7442;50.840;3.396;2023-02-10T13:18:19;24.72;;;10.15;;
14704;SDS011;7442;50.840;3.396;2023-02-10T13:31:46;20.35;;;9.65;;
14704;SDS011;7442;50.840;3.396;2023-02-10T13:34:27;22.45;;;8.65;;
14704;SDS011;7442;50.840;3.396;2023-02-10T13:36:57;15.95;;;8.68;;
14704;SDS011;7442;50.840;3.396;2023-02-10T13:39:27;22.27;;;9.50;;
14704;SDS011;7442;50.840;3.396;2023-02-10T13:42:08;19.48;;;8.93;;
14704;SDS011;7442;50.840;3.396;2023-02-10T13:44:37;19.45;;;9.15;;
14704;SDS011;7442;50.840;3.396;2023-02-10T13:49:51;22.07;;;8.55;;
14704;SDS011;7442;50.840;3.396;2023-02-10T13:52:27;20.35;;;8.75;;
14704;SDS011;7442;50.840;3.396;2023-02-10T13:55:04;23.60;;;9.35;;
14704;SDS011;7442;50.840;3.396;2023-02-10T13:57:38;24.82;;;9.08;;
14704;SDS011;7442;50.840;3.396;2023-02-10T14:00:12;20.92;;;8.38;;
14704;SDS011;7442;50.840;3.396;2023-02-10T14:02:44;23.98;;;8.73;;
14704;SDS011;7442;50.840;3.396;2023-02-10T14:05:28;20.88;;;8.53;;
14704;SDS011;7442;50.840;3.396;2023-02-10T14:07:56;20.10;;;8.68;;
14704;SDS011;7442;50.840;3.396;2023-02-10T14:12:58;22.70;;;9.68;;
14704;SDS011;7442;50.840;3.396;2023-02-10T14:15:32;32.65;;;9.63;;
14704;SDS011;7442;50.840;3.396;2023-02-10T14:18:06;23.77;;;8.45;;
14704;SDS011;7442;50.840;3.396;2023-02-10T14:20:54;25.77;;;8.80;;
14704;SDS011;7442;50.840;3.396;2023-02-10T14:23:31;19.60;;;8.03;;
14704;SDS011;7442;50.840;3.396;2023-02-10T14:26:02;31.48;;;8.70;;
14704;SDS011;7442;50.840;3.396;2023-02-10T14:28:40;23.15;;;8.60;;
14704;SDS011;7442;50.840;3.396;2023-02-10T14:31:10;27.60;;;8.23;;
14704;SDS011;7442;50.840;3.396;2023-02-10T14:33:42;28.65;;;9.15;;
14704;SDS011;7442;50.840;3.396;2023-02-10T14:36:16;24.55;;;8.25;;
14704;SDS011;7442;50.840;3.396;2023-02-10T14:38:49;19.95;;;8.30;;
14704;SDS011;7442;50.840;3.396;2023-02-10T14:41:19;26.12;;;8.83;;
14704;SDS011;7442;50.840;3.396;2023-02-10T14:43:48;26.05;;;8.38;;
14704;SDS011;7442;50.840;3.396;2023-02-10T14:46:28;29.85;;;9.05;;
14704;SDS011;7442;50.840;3.396;2023-02-10T14:48:54;29.87;;;8.75;;
14704;SDS011;7442;50.840;3.396;2023-02-10T14:51:29;27.67;;;8.70;;
14704;SDS011;7442;50.840;3.396;2023-02-10T14:54:08;26.27;;;8.35;;
14704;SDS011;7442;50.840;3.396;2023-02-10T14:56:38;25.75;;;8.40;;
14704;SDS011;7442;50.840;3.396;2023-02-10T14:59:16;25.32;;;7.75;;
14704;SDS011;7442;50.840;3.396;2023-02-10T15:01:36;23.95;;;7.78;;
14704;SDS011;7442;50.840;3.396;2023-02-10T15:04:04;24.95;;;7.50;;
14704;SDS011;7442;50.840;3.396;2023-02-10T15:06:32;23.42;;;7.90;;
14704;SDS011;7442;50.840;3.396;2023-02-10T15:09:01;28.45;;;8.45;;
14704;SDS011;7442;50.840;3.396;2023-02-10T15:11:43;22.60;;;7.90;;
14704;SDS011;7442;50.840;3.396;2023-02-10T15:17:04;31.87;;;8.10;;
14704;SDS011;7442;50.840;3.396;2023-02-10T15:19:34;29.60;;;8.35;;
14704;SDS011;7442;50.840;3.396;2023-02-10T15:22:02;27.07;;;8.13;;
14704;SDS011;7442;50.840;3.396;2023-02-10T15:24:32;20.50;;;7.85;;
14704;SDS011;7442;50.840;3.396;2023-02-10T15:27:16;24.52;;;8.28;;
14704;SDS011;7442;50.840;3.396;2023-02-10T15:29:45;26.87;;;7.83;;
14704;SDS011;7442;50.840;3.396;2023-02-10T15:32:21;21.60;;;7.45;;
14704;SDS011;7442;50.840;3.396;2023-02-10T15:34:47;28.32;;;7.65;;
14704;SDS011;7442;50.840;3.396;2023-02-10T15:37:20;19.25;;;7.53;;
14704;SDS011;7442;50.840;3.396;2023-02-10T15:39:54;20.20;;;7.33;;
14704;SDS011;7442;50.840;3.396;2023-02-10T15:42:26;24.32;;;7.25;;
14704;SDS011;7442;50.840;3.396;2023-02-10T15:45:10;23.73;;;8.03;;
14704;SDS011;7442;50.840;3.396;2023-02-10T15:47:46;21.65;;;7.50;;
14704;SDS011;7442;50.840;3.396;2023-02-10T15:50:22;21.97;;;6.92;;
14704;SDS011;7442;50.840;3.396;2023-02-10T15:52:49;27.42;;;7.03;;
14704;SDS011;7442;50.840;3.396;2023-02-10T15:55:21;32.90;;;7.80;;
14704;SDS011;7442;50.840;3.396;2023-02-10T15:58:00;21.17;;;7.33;;
14704;SDS011;7442;50.840;3.396;2023-02-10T16:00:31;21.10;;;7.42;;
14704;SDS011;7442;50.840;3.396;2023-02-10T16:03:01;22.13;;;6.80;;
14704;SDS011;7442;50.840;3.396;2023-02-10T16:05:30;30.55;;;7.75;;
14704;SDS011;7442;50.840;3.396;2023-02-10T16:08:09;28.20;;;7.35;;
14704;SDS011;7442;50.840;3.396;2023-02-10T16:10:34;20.95;;;6.80;;
14704;SDS011;7442;50.840;3.396;2023-02-10T16:13:01;26.55;;;7.55;;
14704;SDS011;7442;50.840;3.396;2023-02-10T16:15:29;23.92;;;7.30;;
14704;SDS011;7442;50.840;3.396;2023-02-10T16:17:57;27.52;;;7.00;;
14704;SDS011;7442;50.840;3.396;2023-02-10T16:20:29;34.78;;;7.40;;
14704;SDS011;7442;50.840;3.396;2023-02-10T16:22:58;26.62;;;7.83;;
14704;SDS011;7442;50.840;3.396;2023-02-10T16:25:27;16.73;;;6.87;;
14704;SDS011;7442;50.840;3.396;2023-02-10T16:27:55;22.95;;;6.97;;
14704;SDS011;7442;50.840;3.396;2023-02-10T16:30:24;30.08;;;7.17;;
14704;SDS011;7442;50.840;3.396;2023-02-10T16:32:54;21.35;;;6.78;;
14704;SDS011;7442;50.840;3.396;2023-02-10T16:35:22;21.68;;;7.70;;
14704;SDS011;7442;50.840;3.396;2023-02-10T16:37:52;23.98;;;7.25;;
14704;SDS011;7442;50.840;3.396;2023-02-10T16:40:26;22.25;;;6.97;;
14704;SDS011;7442;50.840;3.396;2023-02-10T16:42:51;26.23;;;7.60;;
14704;SDS011;7442;50.840;3.396;2023-02-10T16:45:22;27.25;;;7.08;;
14704;SDS011;7442;50.840;3.396;2023-02-10T16:47:52;20.72;;;6.50;;
14704;SDS011;7442;50.840;3.396;2023-02-10T16:50:35;21.05;;;7.45;;
14704;SDS011;7442;50.840;3.396;2023-02-10T16:53:05;23.40;;;6.45;;
14704;SDS011;7442;50.840;3.396;2023-02-10T16:55:34;19.12;;;6.22;;
14704;SDS011;7442;50.840;3.396;2023-02-10T16:58:03;18.73;;;6.45;;
14704;SDS011;7442;50.840;3.396;2023-02-10T17:00:32;25.80;;;7.03;;
14704;SDS011;7442;50.840;3.396;2023-02-10T17:03:04;22.00;;;6.83;;
14704;SDS011;7442;50.840;3.396;2023-02-10T17:05:32;19.02;;;5.50;;
14704;SDS011;7442;50.840;3.396;2023-02-10T17:08:01;20.65;;;6.03;;
14704;SDS011;7442;50.840;3.396;2023-02-10T17:10:30;21.90;;;6.17;;
14704;SDS011;7442;50.840;3.396;2023-02-10T17:12:58;17.45;;;5.95;;